Time;durP1;ratioP1;P1;durP2;ratioP2;P2;SDS_P1;SDS_P2;PMS_P1;PMS_P2;Temp;Humidity;BMP_temperature;BMP_pressure;BME280_temperature;BME280_humidity;BME280_pressure;Samples;Min_cycle;Max_cycle;Signal;HPM_P1;HPM_P2
2022/11/23 00:00:40;;;;;;;7.28;3.65;;;;;;;4.33;71.33;95384.72;6104970;23;20042;-82
2022/11/23 00:03:14;;;;;;;6.57;3.65;;;;;;;4.26;71.81;95382.97;6104497;23;20030;-89
2022/11/23 00:05:42;;;;;;;6.97;3.42;;;;;;;4.23;71.47;95386.72;6105863;23;20093;-87
2022/11/23 00:08:11;;;;;;;5.85;3.15;;;;;;;4.20;71.99;95381.06;6103848;23;20030;-85
2022/11/23 00:10:39;;;;;;;6.43;3.42;;;;;;;4.17;71.76;95379.66;6104902;23;20022;-84
2022/11/23 00:13:06;;;;;;;7.18;3.30;;;;;;;4.15;71.86;95383.38;6104818;23;20355;-84
2022/11/23 00:15:34;;;;;;;5.47;2.72;;;;;;;4.15;72.09;95391.13;6105368;23;20101;-83
2022/11/23 00:18:02;;;;;;;5.53;2.88;;;;;;;4.16;72.17;95387.59;6104678;23;20053;-83
2022/11/23 00:20:30;;;;;;;4.82;2.90;;;;;;;4.17;72.14;95389.16;6103212;23;20081;-84
2022/11/23 00:22:57;;;;;;;3.60;2.30;;;;;;;4.10;72.26;95384.69;6105475;23;20018;-82
2022/11/23 00:25:26;;;;;;;6.55;2.90;;;;;;;4.05;72.34;95383.63;6104952;23;20022;-85
2022/11/23 00:27:54;;;;;;;5.72;2.60;;;;;;;4.03;72.55;95388.94;6104644;23;20046;-88
2022/11/23 00:30:22;;;;;;;7.00;2.55;;;;;;;4.07;72.35;95392.00;6105659;23;20018;-84
2022/11/23 00:32:50;;;;;;;4.88;2.70;;;;;;;4.09;72.44;95388.25;6104916;23;20023;-81
2022/11/23 00:35:17;;;;;;;6.43;3.25;;;;;;;4.06;72.47;95398.91;6105970;23;20462;-83
2022/11/23 00:37:45;;;;;;;7.60;3.28;;;;;;;4.00;72.63;95394.44;6107493;23;20037;-86
2022/11/23 00:40:13;;;;;;;9.25;4.85;;;;;;;3.97;72.58;95399.94;6106710;23;20484;-85
2022/11/23 00:42:42;;;;;;;13.25;6.18;;;;;;;3.93;72.56;95396.06;6106951;23;20542;-83
2022/11/23 00:45:10;;;;;;;9.55;4.20;;;;;;;3.92;72.66;95392.69;6107416;23;20019;-86
2022/11/23 00:47:38;;;;;;;10.63;4.43;;;;;;;3.93;72.66;95388.34;6107409;23;20029;-85
2022/11/23 00:50:06;;;;;;;9.07;4.30;;;;;;;3.95;72.69;95394.13;6106986;23;20106;-86
2022/11/23 00:52:34;;;;;;;10.48;4.03;;;;;;;3.95;72.70;95394.13;6106717;23;20019;-83
2022/11/23 00:55:01;;;;;;;12.30;4.53;;;;;;;3.96;72.58;95398.34;6106601;23;20117;-82
2022/11/23 00:57:29;;;;;;;9.35;4.57;;;;;;;3.98;72.78;95396.41;6106237;23;20362;-85
2022/11/23 00:59:58;;;;;;;7.97;4.05;;;;;;;4.01;72.90;95390.88;6106413;23;20057;-86
2022/11/23 01:02:26;;;;;;;9.85;4.57;;;;;;;4.04;72.90;95398.28;6107223;23;20014;-83
2022/11/23 01:04:53;;;;;;;15.75;5.40;;;;;;;4.06;72.68;95403.28;6106764;23;20029;-84
2022/11/23 01:07:21;;;;;;;8.25;4.68;;;;;;;4.06;72.83;95403.28;6106139;23;20022;-86
2022/11/23 01:09:49;;;;;;;13.32;5.68;;;;;;;4.03;72.75;95404.41;6107582;23;20019;-85
2022/11/23 01:12:17;;;;;;;14.02;6.35;;;;;;;4.02;72.38;95415.69;6107810;23;20022;-86
2022/11/23 01:14:44;;;;;;;9.77;5.28;;;;;;;4.00;72.42;95409.09;6106955;23;20018;-84
2022/11/23 01:17:13;;;;;;;9.60;5.07;;;;;;;3.99;72.79;95412.66;6107484;23;20026;-82
2022/11/23 01:19:41;;;;;;;6.40;3.85;;;;;;;3.97;72.34;95406.88;6106618;23;20082;-84
2022/11/23 01:22:08;;;;;;;8.75;3.55;;;;;;;3.95;72.51;95407.03;6105939;23;20023;-85
2022/11/23 01:24:36;;;;;;;5.32;3.30;;;;;;;3.94;72.92;95402.88;6106817;23;20440;-84
2022/11/23 01:27:04;;;;;;;4.20;2.65;;;;;;;3.94;72.81;95415.75;6106539;23;20089;-85
2022/11/23 01:29:31;;;;;;;5.30;3.33;;;;;;;3.92;72.54;95417.72;6105468;23;20022;-83
2022/11/23 01:32:00;;;;;;;6.47;3.30;;;;;;;3.90;72.77;95409.34;6106099;23;20046;-82
2022/11/23 01:34:29;;;;;;;6.18;3.08;;;;;;;3.89;73.04;95415.44;6105837;23;20029;-86
2022/11/23 01:36:57;;;;;;;5.22;2.50;;;;;;;3.88;72.91;95421.59;6105736;23;20022;-80
2022/11/23 01:39:24;;;;;;;7.50;2.90;;;;;;;3.85;72.92;95411.63;6106090;23;20042;-86
2022/11/23 01:41:52;;;;;;;6.32;3.00;;;;;;;3.85;73.09;95414.22;6105937;23;20478;-84
2022/11/23 01:44:28;;;;;;;5.70;3.35;;;;;;;3.85;73.17;95422.75;6105438;23;20537;-85
2022/11/23 01:46:58;;;;;;;5.97;3.40;;;;;;;3.85;73.40;95421.94;6106108;23;20352;-82
2022/11/23 01:49:31;;;;;;;6.70;3.70;;;;;;;3.86;73.50;95423.53;6104576;23;20097;-83
2022/11/23 01:52:04;;;;;;;7.00;3.03;;;;;;;3.88;73.04;95424.16;6105840;23;20022;-84
2022/11/23 01:54:36;;;;;;;6.05;3.22;;;;;;;3.87;73.07;95431.13;6105472;23;20475;-80
2022/11/23 01:57:08;;;;;;;5.70;2.88;;;;;;;3.87;73.33;95432.88;6105199;23;20018;-84
2022/11/23 01:59:36;;;;;;;4.38;2.63;;;;;;;3.86;72.66;95426.13;6104654;23;20097;-82
2022/11/23 02:02:05;;;;;;;4.63;2.60;;;;;;;3.85;72.83;95429.69;6104971;23;20073;-84
2022/11/23 02:04:39;;;;;;;6.45;2.60;;;;;;;3.84;72.96;95433.22;6105452;23;20029;-82
2022/11/23 02:07:06;;;;;;;5.65;3.08;;;;;;;3.81;72.95;95436.16;6104544;23;20105;-84
2022/11/23 02:09:35;;;;;;;6.88;3.28;;;;;;;3.79;73.45;95435.50;6104807;23;20108;-84
2022/11/23 02:12:07;;;;;;;6.32;3.65;;;;;;;3.78;73.48;95436.47;6105563;23;20023;-82
2022/11/23 02:14:34;;;;;;;5.88;2.35;;;;;;;3.77;73.04;95440.03;6105598;23;20030;-84
2022/11/23 02:17:02;;;;;;;5.38;3.20;;;;;;;3.77;73.22;95445.19;6105666;23;20019;-82
2022/11/23 02:19:42;;;;;;;4.93;2.97;;;;;;;3.77;73.56;95434.88;6104024;23;20032;-82
2022/11/23 02:22:15;;;;;;;6.00;2.80;;;;;;;3.78;73.63;95437.25;6103683;23;20018;-84
2022/11/23 02:24:49;;;;;;;8.23;4.18;;;;;;;3.79;73.42;95432.94;6104016;23;20362;-82
2022/11/23 02:27:19;;;;;;;7.50;3.83;;;;;;;3.79;73.40;95432.94;6103549;23;20093;-86
2022/11/23 02:29:48;;;;;;;3.13;2.35;;;;;;;3.76;73.13;95434.06;6105216;23;20014;-80
2022/11/23 02:32:21;;;;;;;3.65;2.47;;;;;;;3.77;73.38;95435.66;6105039;23;20104;-84
2022/11/23 02:34:49;;;;;;;5.32;2.60;;;;;;;3.77;73.25;95430.50;6104720;23;20332;-83
2022/11/23 02:37:18;;;;;;;7.00;3.38;;;;;;;3.75;73.55;95441.97;6104074;23;20066;-82
2022/11/23 02:39:48;;;;;;;4.90;2.70;;;;;;;3.74;73.61;95440.34;6103320;23;20025;-83
2022/11/23 02:42:15;;;;;;;8.05;3.25;;;;;;;3.74;73.25;95445.50;6103693;23;20019;-81
2022/11/23 02:44:53;;;;;;;6.15;2.22;;;;;;;3.74;73.49;95432.59;6104034;23;20027;-86
2022/11/23 02:47:21;;;;;;;4.32;2.20;;;;;;;3.74;73.22;95435.19;6104102;23;20041;-81
2022/11/23 02:49:49;;;;;;;6.47;2.30;;;;;;;3.74;73.50;95442.94;6103563;23;20079;-86
2022/11/23 02:52:17;;;;;;;5.60;2.25;;;;;;;3.71;73.55;95437.13;6103153;23;20074;-85
2022/11/23 02:54:45;;;;;;;5.38;1.95;;;;;;;3.70;73.35;95427.00;6103507;23;20015;-81
2022/11/23 02:57:13;;;;;;;4.82;2.47;;;;;;;3.66;73.24;95434.25;6103164;23;20029;-83
2022/11/23 02:59:41;;;;;;;8.10;2.10;;;;;;;3.62;73.21;95427.03;6102978;23;20018;-82
2022/11/23 03:02:10;;;;;;;3.92;3.17;;;;;;;3.59;73.39;95428.16;6104213;23;20033;-81
2022/11/23 03:04:37;;;;;;;5.13;2.90;;;;;;;3.57;73.29;95424.16;6104865;23;20025;-84
2022/11/23 03:07:05;;;;;;;5.93;2.67;;;;;;;3.55;73.71;95432.03;6103885;23;20455;-84
2022/11/23 03:09:33;;;;;;;4.63;2.55;;;;;;;3.50;73.50;95424.81;6103260;23;20098;-83
2022/11/23 03:12:01;;;;;;;4.25;2.40;;;;;;;3.48;73.74;95431.13;6103811;23;20097;-86
2022/11/23 03:14:29;;;;;;;5.30;2.80;;;;;;;3.46;74.03;95422.75;6102875;23;20459;-82
2022/11/23 03:16:56;;;;;;;3.80;2.72;;;;;;;3.47;73.66;95421.75;6103209;23;20323;-80
2022/11/23 03:19:25;;;;;;;8.52;2.72;;;;;;;3.46;73.85;95433.84;6103257;23;20025;-83
2022/11/23 03:21:53;;;;;;;4.93;2.33;;;;;;;3.48;74.03;95428.53;6103019;23;20030;-81
2022/11/23 03:24:20;;;;;;;5.50;2.50;;;;;;;3.48;73.87;95431.91;6102898;23;20018;-83
2022/11/23 03:26:48;;;;;;;6.50;2.55;;;;;;;3.49;73.78;95436.09;6102537;23;20041;-83
2022/11/23 03:29:16;;;;;;;4.80;2.00;;;;;;;3.53;73.95;95438.34;6102718;23;20018;-84
2022/11/23 03:31:43;;;;;;;5.47;2.80;;;;;;;3.53;73.53;95433.19;6103216;23;20101;-86
2022/11/23 03:34:11;;;;;;;7.43;3.00;;;;;;;3.51;73.67;95431.56;6103475;23;20018;-83
2022/11/23 03:36:40;;;;;;;7.82;3.85;;;;;;;3.52;73.85;95440.13;6102834;23;20018;-83
2022/11/23 03:39:08;;;;;;;9.23;3.95;;;;;;;3.53;73.56;95439.13;6101808;23;20025;-84
2022/11/23 03:41:35;;;;;;;6.50;4.28;;;;;;;3.51;73.61;95433.34;6103000;23;20479;-82
2022/11/23 03:44:03;;;;;;;8.38;3.88;;;;;;;3.49;73.37;95422.41;6103302;23;20073;-81
2022/11/23 03:46:31;;;;;;;12.57;4.93;;;;;;;3.48;73.42;95428.53;6103038;23;20049;-82
2022/11/23 03:48:59;;;;;;;10.15;4.18;;;;;;;3.47;73.33;95434.66;6103575;23;20022;-86
2022/11/23 03:51:27;;;;;;;8.57;4.20;;;;;;;3.45;73.07;95426.28;6105990;23;20025;-86
2022/11/23 03:53:56;;;;;;;14.27;4.50;;;;;;;3.43;73.40;95428.22;6107157;23;20022;-85
2022/11/23 03:56:24;;;;;;;10.60;5.00;;;;;;;3.42;73.61;95418.88;6107633;23;20029;-85
2022/11/23 03:58:54;;;;;;;8.52;4.10;;;;;;;3.36;73.56;95422.91;6096514;23;20506;-81
2022/11/23 04:01:21;;;;;;;5.97;3.30;;;;;;;3.32;73.15;95421.63;6096713;23;20105;-81
2022/11/23 04:03:49;;;;;;;10.43;4.25;;;;;;;3.30;73.78;95416.66;6096899;23;20332;-80
2022/11/23 04:06:16;;;;;;;8.95;3.88;;;;;;;3.30;73.75;95418.41;6096555;23;20026;-80
2022/11/23 04:08:44;;;;;;;11.20;3.70;;;;;;;3.29;73.74;95414.25;6096299;23;20091;-81
2022/11/23 04:11:13;;;;;;;7.65;4.50;;;;;;;3.30;73.77;95418.41;6096594;23;20027;-80
2022/11/23 04:13:40;;;;;;;8.40;4.32;;;;;;;3.30;73.68;95414.09;6096606;23;20049;-81
2022/11/23 04:16:08;;;;;;;5.10;3.03;;;;;;;3.31;73.98;95414.88;6096830;23;20029;-81
2022/11/23 04:18:35;;;;;;;6.45;3.45;;;;;;;3.29;73.73;95415.03;6095703;23;20027;-80
2022/11/23 04:21:03;;;;;;;5.22;3.33;;;;;;;3.26;73.86;95412.00;6096526;23;20470;-80
2022/11/23 04:23:31;;;;;;;8.93;3.90;;;;;;;3.25;73.60;95418.13;6096860;23;20109;-80
2022/11/23 04:25:58;;;;;;;7.68;3.33;;;;;;;3.25;73.81;95411.19;6096715;23;20034;-80
2022/11/23 04:28:27;;;;;;;9.10;3.20;;;;;;;3.24;74.17;95414.75;6096376;23;20307;-81
2022/11/23 04:30:57;;;;;;;6.55;3.35;;;;;;;3.23;74.05;95414.91;6096772;23;20030;-80
2022/11/23 04:33:25;;;;;;;5.63;2.88;;;;;;;3.26;74.27;95419.75;6096539;23;20022;-81
2022/11/23 04:35:53;;;;;;;6.15;3.40;;;;;;;3.25;74.11;95411.19;6096683;23;20022;-81
2022/11/23 04:38:20;;;;;;;4.22;2.60;;;;;;;3.30;74.31;95418.41;6096167;23;20022;-81
2022/11/23 04:40:48;;;;;;;6.38;3.08;;;;;;;3.34;74.21;95422.28;6096662;23;20029;-80
2022/11/23 04:43:16;;;;;;;6.70;3.13;;;;;;;3.36;74.02;95414.38;6098018;23;20022;-80
2022/11/23 04:45:45;;;;;;;6.90;3.35;;;;;;;3.36;73.74;95409.22;6098197;23;20022;-80
2022/11/23 04:48:12;;;;;;;6.90;3.10;;;;;;;3.36;73.91;95411.81;6098416;23;20101;-80
2022/11/23 04:50:40;;;;;;;10.50;4.00;;;;;;;3.35;74.07;95412.78;6098620;23;20029;-80
2022/11/23 04:53:12;;;;;;;7.93;2.95;;;;;;;3.37;74.17;95408.25;6101670;23;20027;-80
2022/11/23 04:55:40;;;;;;;4.90;3.10;;;;;;;3.41;73.96;95404.38;6103738;23;20018;-80
2022/11/23 04:58:08;;;;;;;6.63;2.95;;;;;;;3.44;73.87;95404.06;6102127;23;20014;-80
2022/11/23 05:00:35;;;;;;;5.22;2.90;;;;;;;3.44;73.70;95410.00;6102011;23;20407;-80
2022/11/23 05:03:04;;;;;;;6.85;3.40;;;;;;;3.46;74.22;95402.91;6100078;23;20034;-80
2022/11/23 05:05:32;;;;;;;4.88;2.83;;;;;;;3.48;74.09;95400.19;6099823;23;20022;-80
2022/11/23 05:07:59;;;;;;;6.07;3.15;;;;;;;3.50;74.05;95403.41;6099900;23;20018;-80
2022/11/23 05:10:27;;;;;;;5.82;2.65;;;;;;;3.55;73.91;95410.63;6100961;23;20018;-80
2022/11/23 05:12:54;;;;;;;4.90;2.45;;;;;;;3.60;73.90;95400.59;6101197;23;20019;-80
2022/11/23 05:15:22;;;;;;;5.75;2.20;;;;;;;3.67;74.23;95404.09;6098518;23;20022;-80
2022/11/23 05:17:50;;;;;;;5.78;2.55;;;;;;;3.72;73.88;95397.50;6097034;23;20034;-80
2022/11/23 05:20:25;;;;;;;8.63;3.30;;;;;;;3.78;73.40;95390.03;6098136;23;20078;-80
2022/11/23 05:22:53;;;;;;;5.65;2.78;;;;;;;3.82;73.34;95396.47;6097771;23;20029;-80
2022/11/23 05:25:20;;;;;;;6.07;3.10;;;;;;;3.81;73.23;95390.50;6097760;23;20025;-80
2022/11/23 05:27:48;;;;;;;8.05;4.00;;;;;;;3.82;73.69;95396.47;6097636;23;20037;-80
2022/11/23 05:30:16;;;;;;;7.68;3.63;;;;;;;3.84;73.48;95384.22;6097423;23;20097;-81
2022/11/23 05:32:43;;;;;;;10.55;4.15;;;;;;;3.86;73.66;95388.22;6097827;23;20475;-80
2022/11/23 05:35:11;;;;;;;9.43;4.10;;;;;;;3.89;73.11;95384.50;6098328;23;20613;-80
2022/11/23 05:37:41;;;;;;;15.32;4.53;;;;;;;3.91;73.21;95385.94;6097601;23;20028;-80
2022/11/23 05:40:09;;;;;;;12.65;4.88;;;;;;;3.95;73.31;95386.41;6097699;23;20355;-81
2022/11/23 05:42:37;;;;;;;9.25;4.22;;;;;;;3.98;73.01;95390.41;6097661;23;20062;-80
2022/11/23 05:45:06;;;;;;;10.27;3.70;;;;;;;4.01;73.15;95396.03;6098255;23;20029;-80
2022/11/23 05:47:38;;;;;;;13.35;4.40;;;;;;;4.05;73.18;95392.16;6097977;23;20033;-80
2022/11/23 05:50:06;;;;;;;13.02;5.35;;;;;;;4.08;72.82;95391.00;6097451;23;20019;-80
2022/11/23 05:52:34;;;;;;;7.93;3.90;;;;;;;4.07;72.95;95395.38;6097964;23;20029;-80
2022/11/23 05:55:03;;;;;;;13.98;3.78;;;;;;;4.08;72.99;95398.75;6097098;23;20049;-81
2022/11/23 05:57:31;;;;;;;12.13;4.80;;;;;;;4.06;72.94;95391.16;6097266;23;20069;-80
2022/11/23 05:59:59;;;;;;;10.07;3.80;;;;;;;4.04;72.88;95390.53;6097496;23;20026;-80
2022/11/23 06:02:26;;;;;;;6.70;4.00;;;;;;;4.02;72.47;95392.47;6097823;23;20022;-80
2022/11/23 06:04:54;;;;;;;13.88;5.63;;;;;;;4.02;72.73;95396.84;6098297;23;20022;-82
2022/11/23 06:07:21;;;;;;;12.27;4.70;;;;;;;4.01;72.76;95393.47;6096840;23;20022;-81
2022/11/23 06:09:49;;;;;;;10.80;4.63;;;;;;;3.98;72.76;95386.06;6097678;23;20529;-81
2022/11/23 06:12:19;;;;;;;7.25;4.55;;;;;;;3.95;72.95;95393.34;6098028;23;20022;-81
2022/11/23 06:14:46;;;;;;;9.02;3.97;;;;;;;3.93;73.08;95388.34;6097760;23;20454;-80
2022/11/23 06:17:15;;;;;;;5.63;3.67;;;;;;;3.92;72.61;95384.16;6097346;23;20022;-81
2022/11/23 06:19:43;;;;;;;9.43;3.90;;;;;;;3.92;73.09;95390.13;6098207;23;20023;-82
2022/11/23 06:22:39;;;;;;;7.10;3.38;;;;;;;3.94;72.90;95389.16;6097156;23;20018;-82
2022/11/23 06:25:08;;;;;;;7.30;3.78;;;;;;;3.94;73.21;95395.13;6097193;23;20042;-81
2022/11/23 06:27:37;;;;;;;8.75;4.45;;;;;;;3.94;72.99;95395.13;6097530;23;20109;-81
2022/11/23 06:30:06;;;;;;;10.48;3.70;;;;;;;3.96;73.38;95400.91;6098223;23;20022;-81
2022/11/23 06:32:35;;;;;;;8.43;3.60;;;;;;;3.97;72.79;95394.78;6097176;23;20094;-81
2022/11/23 06:35:03;;;;;;;6.68;3.60;;;;;;;4.01;73.18;95396.03;6097471;23;20028;-81
2022/11/23 06:37:32;;;;;;;8.02;4.13;;;;;;;4.04;73.34;95405.22;6098292;23;20022;-82
2022/11/23 06:40:02;;;;;;;11.52;4.68;;;;;;;4.03;73.22;95396.69;6097706;23;20045;-82
2022/11/23 06:42:55;;;;;;;6.57;3.92;;;;;;;4.05;73.35;95397.31;6097677;23;20041;-82
2022/11/23 06:45:22;;;;;;;14.95;5.18;;;;;;;4.06;73.08;95400.69;6103746;23;20018;-81
2022/11/23 06:53:13;;;;;;;9.63;4.30;;;;;;;4.01;73.08;95411.53;6094095;23;20054;-81
2022/11/23 06:55:41;;;;;;;8.07;5.07;;;;;;;4.01;73.35;95411.53;6097681;23;20097;-82
2022/11/23 06:58:11;;;;;;;12.65;5.93;;;;;;;4.00;73.66;95409.94;6098022;23;20038;-82
2022/11/23 07:00:39;;;;;;;8.20;4.88;;;;;;;4.04;73.14;95418.13;6099394;23;20022;-81
2022/11/23 07:03:06;;;;;;;6.57;4.60;;;;;;;4.08;73.46;95421.97;6099295;23;20049;-81
2022/11/23 07:05:34;;;;;;;5.97;4.30;;;;;;;4.10;73.21;95430.34;6094757;23;20022;-81
2022/11/23 07:08:02;;;;;;;8.52;4.65;;;;;;;4.11;73.26;95435.34;6085492;23;20781;-79
2022/11/23 07:10:31;;;;;;;10.70;5.13;;;;;;;4.15;73.33;95427.25;6091703;23;20022;-78
2022/11/23 07:13:04;;;;;;;8.75;5.15;;;;;;;4.18;73.09;95432.09;6094982;23;20026;-79
2022/11/23 07:15:34;;;;;;;11.80;4.53;;;;;;;4.19;72.85;95433.69;6095613;23;20033;-79
2022/11/23 07:18:01;;;;;;;9.93;4.78;;;;;;;4.19;73.09;95429.31;6092014;23;20030;-79
2022/11/23 07:20:29;;;;;;;10.40;4.80;;;;;;;4.21;72.72;95442.84;6095367;23;20029;-79
2022/11/23 07:23:00;;;;;;;11.60;5.72;;;;;;;4.21;72.91;95442.06;6097029;23;20018;-80
2022/11/23 07:25:28;;;;;;;9.98;4.50;;;;;;;4.21;73.22;95437.69;6096927;23;20023;-76
2022/11/23 07:27:56;;;;;;;7.53;3.85;;;;;;;4.25;73.54;95443.34;6096532;23;20022;-80
2022/11/23 07:30:24;;;;;;;6.65;3.47;;;;;;;4.27;72.90;95447.34;6096646;23;20099;-80
2022/11/23 07:33:00;;;;;;;8.20;3.63;;;;;;;4.32;73.00;95446.84;6096920;23;20077;-81
2022/11/23 07:35:29;;;;;;;9.75;3.80;;;;;;;4.35;72.92;95443.91;6096499;23;20029;-80
2022/11/23 07:37:56;;;;;;;7.80;3.83;;;;;;;4.36;72.61;95455.03;6096449;23;20101;-81
2022/11/23 07:40:25;;;;;;;6.43;3.50;;;;;;;4.38;72.71;95448.72;6096314;23;20030;-80
2022/11/23 07:42:53;;;;;;;10.95;4.20;;;;;;;4.39;72.70;95442.59;6096273;23;20032;-80
2022/11/23 07:45:21;;;;;;;8.18;3.60;;;;;;;4.42;72.76;95447.41;6096769;23;20030;-80
2022/11/23 07:47:58;;;;;;;10.07;4.50;;;;;;;4.43;72.66;95441.25;6095775;23;20097;-80
2022/11/23 07:50:27;;;;;;;7.65;3.60;;;;;;;4.48;72.52;95451.06;6096145;23;20477;-79
2022/11/23 07:52:55;;;;;;;7.88;3.92;;;;;;;4.51;72.47;95443.81;6095309;23;20110;-81
2022/11/23 07:55:23;;;;;;;8.48;3.80;;;;;;;4.57;72.30;95444.06;6096179;23;20025;-80
2022/11/23 07:57:54;;;;;;;7.60;3.78;;;;;;;4.60;72.13;95443.75;6095998;23;20482;-80
2022/11/23 08:00:23;;;;;;;7.88;3.63;;;;;;;4.64;72.38;95442.44;6096507;23;20030;-80
2022/11/23 08:02:52;;;;;;;5.32;3.00;;;;;;;4.68;71.92;95454.00;6096764;23;20482;-80
2022/11/23 08:05:41;;;;;;;5.38;2.55;;;;;;;4.69;72.00;95450.44;6096198;23;20042;-81
2022/11/23 08:08:09;;;;;;;4.80;2.50;;;;;;;4.70;72.22;95449.47;6095709;23;20046;-79
2022/11/23 08:10:36;;;;;;;4.55;2.67;;;;;;;4.73;71.60;95443.97;6095783;23;20038;-80
2022/11/23 08:13:11;;;;;;;5.95;2.53;;;;;;;4.77;71.34;95445.22;6095890;23;20029;-79
2022/11/23 08:15:39;;;;;;;5.72;3.22;;;;;;;4.80;71.67;95442.28;6096045;23;20029;-81
2022/11/23 08:18:06;;;;;;;6.45;2.92;;;;;;;4.83;71.58;95447.13;6095237;23;20425;-81
2022/11/23 08:20:34;;;;;;;7.25;3.08;;;;;;;4.85;71.53;95452.09;6095959;23;20022;-80
2022/11/23 08:23:03;;;;;;;5.47;2.80;;;;;;;4.89;71.85;95450.78;6096149;23;20022;-80
2022/11/23 08:25:31;;;;;;;6.15;2.80;;;;;;;4.92;71.38;95451.25;6095903;23;20045;-80
2022/11/23 08:27:59;;;;;;;7.95;3.55;;;;;;;4.94;71.11;95449.28;6095702;23;20030;-80
2022/11/23 08:30:29;;;;;;;6.43;2.92;;;;;;;4.96;71.46;95449.09;6096002;23;20019;-80
2022/11/23 08:32:56;;;;;;;4.75;2.55;;;;;;;4.99;71.03;95450.56;6096672;23;20109;-81
2022/11/23 08:35:24;;;;;;;7.32;3.17;;;;;;;4.98;70.62;95454.91;6097252;23;20458;-80
2022/11/23 08:37:52;;;;;;;6.88;2.88;;;;;;;5.02;70.89;95455.34;6096081;23;20022;-82
2022/11/23 08:40:40;;;;;;;7.88;3.42;;;;;;;5.07;71.35;95458.22;6096258;23;20022;-81
2022/11/23 08:43:08;;;;;;;6.57;3.75;;;;;;;5.11;71.21;95459.47;6096496;23;20340;-81
2022/11/23 08:45:36;;;;;;;6.75;3.20;;;;;;;5.16;70.98;95457.97;6095800;23;20111;-80
2022/11/23 08:48:05;;;;;;;7.05;3.35;;;;;;;5.21;70.90;95460.03;6095561;23;20028;-81
2022/11/23 08:50:35;;;;;;;6.18;3.20;;;;;;;5.27;70.87;95461.91;6096329;23;20650;-80
2022/11/23 08:55:48;;;;;;;9.02;3.20;;;;;;;5.45;70.42;95455.59;6096689;23;20022;-80
2022/11/23 08:58:16;;;;;;;8.07;3.17;;;;;;;5.50;70.36;95463.63;6096449;23;20018;-80
2022/11/23 09:00:44;;;;;;;4.63;2.50;;;;;;;5.58;70.80;95466.13;6095423;23;20340;-81
2022/11/23 09:03:12;;;;;;;6.63;3.67;;;;;;;5.67;70.29;95464.25;6096634;23;20459;-80
2022/11/23 09:05:40;;;;;;;8.32;2.85;;;;;;;5.75;70.11;95464.16;6096302;23;20025;-80
2022/11/23 09:08:08;;;;;;;5.93;2.60;;;;;;;5.82;69.66;95466.84;6096501;23;20404;-81
2022/11/23 09:10:37;;;;;;;5.50;2.75;;;;;;;5.92;69.50;95467.34;6095807;23;20019;-80
2022/11/23 09:13:06;;;;;;;7.38;2.85;;;;;;;6.00;69.50;95466.50;6095685;23;20022;-80
2022/11/23 09:15:34;;;;;;;6.97;3.50;;;;;;;6.06;69.22;95461.41;6096108;23;20097;-81
2022/11/23 09:18:02;;;;;;;7.80;3.00;;;;;;;6.14;68.93;95461.28;6097147;23;20026;-81
2022/11/23 09:20:33;;;;;;;10.68;2.65;;;;;;;6.24;68.74;95462.78;6096789;23;20041;-81
2022/11/23 09:23:02;;;;;;;8.90;3.45;;;;;;;6.36;69.05;95466.50;6097641;23;20021;-81
2022/11/23 09:25:31;;;;;;;8.60;2.85;;;;;;;6.47;68.51;95460.03;6096162;23;20056;-81
2022/11/23 09:27:59;;;;;;;7.90;3.20;;;;;;;6.57;67.93;95461.34;6096053;23;20022;-80
2022/11/23 09:30:29;;;;;;;5.20;2.78;;;;;;;6.68;67.66;95460.03;6096957;23;20025;-80
2022/11/23 09:32:57;;;;;;;6.35;3.20;;;;;;;6.77;67.39;95455.53;6097710;23;20463;-80
2022/11/23 09:35:26;;;;;;;6.00;2.95;;;;;;;6.88;67.41;95455.03;6097001;23;20101;-81
2022/11/23 09:37:57;;;;;;;11.07;3.88;;;;;;;6.99;66.89;95459.72;6096273;23;20700;-81
2022/11/23 09:40:30;;;;;;;6.32;3.10;;;;;;;7.12;67.08;95453.03;6096749;23;20463;-80
2022/11/23 09:43:17;;;;;;;8.68;3.00;;;;;;;7.25;66.13;95457.53;6097008;23;20354;-79
2022/11/23 09:45:49;;;;;;;8.02;3.00;;;;;;;7.39;66.00;95444.47;6096494;23;20026;-79
2022/11/23 09:48:40;;;;;;;6.13;2.63;;;;;;;7.60;66.01;95453.94;6096202;23;20023;-79
2022/11/23 09:51:15;;;;;;;9.75;3.22;;;;;;;7.84;65.00;95447.47;6096644;23;20019;-79
2022/11/23 09:53:48;;;;;;;8.05;4.47;;;;;;;8.09;64.43;95448.78;6096454;23;20022;-80
2022/11/23 09:56:18;;;;;;;5.57;3.15;;;;;;;8.39;64.44;95447.47;6097253;23;20096;-79
2022/11/23 09:58:47;;;;;;;7.13;3.85;;;;;;;8.72;63.46;95443.38;6096439;23;20446;-80
2022/11/23 10:01:16;;;;;;;7.68;3.20;;;;;;;9.04;62.23;95450.41;6096455;23;20026;-81
2022/11/23 10:03:45;;;;;;;5.88;3.22;;;;;;;9.37;61.73;95441.78;6096478;23;20367;-80
2022/11/23 10:06:24;;;;;;;5.27;2.73;;;;;;;9.71;60.10;95437.31;6095520;23;20412;-81
2022/11/23 10:09:14;;;;;;;10.60;3.88;;;;;;;10.02;58.75;95438.41;6099612;23;20241;-81
2022/11/23 10:12:22;;;;;;;5.57;3.17;;;;;;;10.40;57.91;95440.28;6100532;23;20451;-81
2022/11/23 10:15:12;;;;;;;9.40;3.50;;;;;;;10.71;58.29;95432.47;6100213;23;20078;-81
2022/11/23 10:18:05;;;;;;;6.28;2.97;;;;;;;11.08;56.80;95442.22;6101396;23;20078;-82
2022/11/23 10:20:54;;;;;;;6.25;3.05;;;;;;;11.44;55.88;95444.13;6099748;23;20014;-81
2022/11/23 10:23:38;;;;;;;6.18;3.28;;;;;;;11.76;54.43;95441.41;6100607;23;20018;-81
2022/11/23 10:26:11;;;;;;;5.20;3.05;;;;;;;12.03;54.46;95443.78;6102054;23;20029;-81
2022/11/23 10:28:41;;;;;;;7.43;3.97;;;;;;;12.26;54.38;95441.25;6109041;23;20028;-81
2022/11/23 10:31:16;;;;;;;8.80;3.97;;;;;;;12.48;52.95;95435.53;6103862;23;20358;-81
2022/11/23 10:33:58;;;;;;;5.38;3.58;;;;;;;12.64;51.38;95434.94;6100067;23;20033;-81
2022/11/23 10:36:26;;;;;;;9.80;4.18;;;;;;;12.79;52.46;95437.16;6099443;23;20022;-81
2022/11/23 10:38:59;;;;;;;7.72;3.20;;;;;;;12.96;50.24;95422.34;6100909;23;20030;-81
2022/11/23 10:41:35;;;;;;;8.55;3.60;;;;;;;13.14;50.39;95421.50;6106521;23;20489;-81
2022/11/23 10:44:20;;;;;;;6.63;2.90;;;;;;;13.34;49.86;95413.34;6102696;23;20101;-81
2022/11/23 10:46:48;;;;;;;5.47;3.03;;;;;;;13.56;49.56;95416.16;6102202;23;20023;-81
2022/11/23 10:49:21;;;;;;;9.85;3.35;;;;;;;13.67;48.42;95417.19;6099541;23;20102;-81
2022/11/23 10:51:57;;;;;;;5.63;3.88;;;;;;;13.77;48.77;95419.22;6101040;23;20022;-82
2022/11/23 10:54:32;;;;;;;5.93;2.60;;;;;;;13.95;48.18;95413.84;6100477;23;20022;-81
2022/11/23 10:57:04;;;;;;;8.32;2.45;;;;;;;14.15;47.94;95420.50;6105941;23;20415;-81
2022/11/23 10:59:40;;;;;;;7.13;2.97;;;;;;;14.31;48.17;95411.09;6107549;23;20023;-82
2022/11/23 11:02:21;;;;;;;9.50;3.03;;;;;;;14.48;47.48;95411.94;6104850;23;20018;-81
2022/11/23 11:05:16;;;;;;;7.03;3.28;;;;;;;14.67;45.78;95412.56;6106060;23;20518;-83
2022/11/23 11:07:46;;;;;;;8.10;3.20;;;;;;;14.80;46.18;95414.06;6102768;23;20479;-81
2022/11/23 11:13:24;;;;;;;4.38;2.30;;;;;;;15.18;45.32;95415.22;6109094;23;20023;-80
2022/11/23 11:15:59;;;;;;;5.40;2.58;;;;;;;15.31;45.55;95403.59;6107217;23;20097;-80
2022/11/23 11:18:30;;;;;;;7.82;2.78;;;;;;;15.44;44.73;95409.31;6097617;23;20022;-79
2022/11/23 11:21:04;;;;;;;5.60;2.38;;;;;;;15.56;43.36;95403.16;6107916;23;20026;-81
2022/11/23 11:23:40;;;;;;;4.50;2.40;;;;;;;15.64;42.61;95400.91;6118410;23;20010;-79
2022/11/23 11:28:54;;;;;;;5.07;1.85;;;;;;;15.85;43.33;95402.00;6082708;23;20387;-80
2022/11/23 11:32:04;;;;;;;6.32;2.15;;;;;;;15.94;41.32;95397.09;6091526;23;20059;-80
2022/11/23 11:34:51;;;;;;;4.78;2.55;;;;;;;15.95;41.24;95396.06;6095026;23;20049;-79
2022/11/23 11:37:30;;;;;;;4.50;2.30;;;;;;;15.95;41.81;95390.00;6079802;23;20070;-79
2022/11/23 11:40:11;;;;;;;6.70;2.00;;;;;;;16.02;42.08;95390.59;6093206;23;20023;-78
2022/11/23 11:42:51;;;;;;;5.30;1.65;;;;;;;16.09;40.88;95388.56;6093663;23;20019;-79
2022/11/23 11:45:26;;;;;;;2.55;1.40;;;;;;;16.16;39.98;95394.47;6094378;23;20022;-79
2022/11/23 11:48:04;;;;;;;6.85;2.08;;;;;;;16.18;41.02;95391.56;6094389;23;20007;-79
2022/11/23 11:50:38;;;;;;;4.07;1.90;;;;;;;16.24;38.42;95388.75;6091933;23;20019;-83
2022/11/23 11:53:13;;;;;;;2.97;1.27;;;;;;;16.28;37.08;95386.41;6094829;23;20010;-83
2022/11/23 11:55:50;;;;;;;4.93;1.73;;;;;;;16.24;37.48;95380.84;6092941;23;20083;-83
2022/11/23 11:58:22;;;;;;;6.18;1.58;;;;;;;16.20;37.91;95385.03;6077904;23;20078;-83
2022/11/23 12:00:53;;;;;;;2.85;1.55;;;;;;;16.17;37.63;95376.84;6079222;23;20033;-82
2022/11/23 12:03:36;;;;;;;5.32;1.80;;;;;;;16.15;38.14;95378.91;6084837;23;20078;-82
2022/11/23 12:06:14;;;;;;;3.95;1.40;;;;;;;16.10;36.51;95376.25;6086640;23;20023;-83
2022/11/23 12:08:51;;;;;;;3.08;1.42;;;;;;;16.03;35.60;95382.47;6080757;23;20027;-83